createdAt,value
2022-11-14T00:02:28.470Z,3.20
2022-11-14T00:05:14.218Z,4.50
2022-11-14T00:07:59.756Z,2.70
2022-11-14T00:10:50.231Z,3.30
2022-11-14T00:13:36.088Z,5.10
2022-11-14T00:16:21.718Z,5.10
2022-11-14T00:19:07.450Z,3.10
2022-11-14T00:21:53.609Z,3.20
2022-11-14T00:24:39.003Z,4.60
2022-11-14T00:27:24.500Z,4.00
2022-11-14T00:30:10.279Z,4.90
2022-11-14T00:32:56.049Z,2.50
2022-11-14T00:35:41.671Z,4.50
2022-11-14T00:38:27.826Z,4.80
2022-11-14T00:41:13.585Z,4.30
2022-11-14T00:43:59.236Z,5.10
2022-11-14T00:46:44.736Z,3.50
2022-11-14T00:49:30.112Z,3.00
2022-11-14T00:52:15.790Z,2.90
2022-11-14T00:55:01.232Z,2.60
2022-11-14T00:57:47.028Z,5.30
2022-11-14T01:00:32.852Z,2.70
2022-11-14T01:03:18.498Z,2.70
2022-11-14T01:06:07.262Z,4.20
2022-11-14T01:08:52.629Z,2.80
2022-11-14T01:12:46.008Z,3.20
2022-11-14T01:15:31.290Z,2.90
2022-11-14T01:18:19.981Z,4.20
2022-11-14T01:21:07.980Z,4.30
2022-11-14T01:23:53.611Z,3.10
2022-11-14T01:26:39.044Z,3.10
2022-11-14T01:29:24.538Z,3.10
2022-11-14T01:32:10.017Z,4.00
2022-11-14T01:34:55.594Z,4.40
2022-11-14T01:37:40.962Z,5.40
2022-11-14T01:40:26.621Z,5.00
2022-11-14T01:43:11.964Z,3.30
2022-11-14T01:45:59.155Z,4.90
2022-11-14T01:49:17.320Z,3.40
2022-11-14T01:52:06.949Z,3.40
2022-11-14T01:54:55.951Z,3.50
2022-11-14T01:57:46.169Z,4.70
2022-11-14T02:00:31.416Z,3.50
2022-11-14T02:03:18.759Z,5.00
2022-11-14T02:06:06.535Z,5.40
2022-11-14T02:08:53.696Z,3.50
2022-11-14T02:11:43.383Z,4.00
2022-11-14T02:14:29.933Z,3.50
2022-11-14T02:17:32.175Z,3.60
2022-11-14T02:20:28.792Z,3.60
2022-11-14T02:23:15.050Z,4.20
2022-11-14T02:27:10.578Z,4.10
2022-11-14T02:30:04.645Z,3.50
2022-11-14T02:33:10.077Z,5.00
2022-11-14T02:35:56.081Z,5.00
2022-11-14T02:38:41.915Z,4.80
2022-11-14T02:41:27.966Z,3.80
2022-11-14T02:44:13.803Z,3.50
2022-11-14T02:46:59.091Z,3.70
2022-11-14T02:49:44.462Z,3.50
2022-11-14T02:52:29.874Z,4.70
2022-11-14T02:55:15.554Z,5.20
2022-11-14T02:58:01.027Z,3.40
2022-11-14T03:01:13.675Z,4.70
2022-11-14T03:03:52.411Z,5.70
2022-11-14T03:06:38.018Z,4.50
2022-11-14T03:09:23.447Z,5.10
2022-11-14T03:12:09.336Z,4.50
2022-11-14T03:14:54.928Z,5.10
2022-11-14T03:17:40.254Z,4.50
2022-11-14T03:20:25.921Z,4.80
2022-11-14T03:23:11.458Z,5.30
2022-11-14T03:26:01.911Z,4.60
2022-11-14T03:28:47.287Z,3.00
2022-11-14T03:31:33.142Z,5.30
2022-11-14T03:34:18.525Z,5.00
2022-11-14T03:37:03.995Z,4.70
2022-11-14T03:39:49.283Z,5.20
2022-11-14T03:42:35.791Z,4.20
2022-11-14T03:45:21.474Z,2.80
2022-11-14T03:48:07.440Z,4.20
2022-11-14T03:50:52.806Z,3.90
2022-11-14T03:53:38.171Z,5.10
2022-11-14T03:56:23.654Z,4.60
2022-11-14T04:03:34.907Z,2.60
2022-11-14T04:06:20.332Z,3.00
2022-11-14T04:09:06.561Z,3.80
2022-11-14T04:11:51.655Z,4.60
2022-11-14T04:14:37.100Z,3.20
2022-11-14T04:17:22.662Z,3.80
2022-11-14T04:20:08.874Z,3.60
2022-11-14T04:22:54.503Z,2.40
2022-11-14T04:25:40.046Z,4.90
2022-11-14T04:28:25.733Z,4.10
2022-11-14T04:31:11.204Z,4.70
2022-11-14T04:33:56.808Z,4.80
2022-11-14T04:36:42.477Z,4.60
2022-11-14T04:39:28.064Z,4.70
2022-11-14T04:42:13.881Z,5.00
2022-11-14T04:44:59.430Z,4.80
2022-11-14T04:47:45.118Z,3.90
2022-11-14T04:50:30.854Z,4.00
2022-11-14T04:53:16.178Z,3.30
2022-11-14T04:56:01.715Z,4.70
2022-11-14T04:58:47.210Z,3.60
2022-11-14T05:01:33.122Z,3.90
2022-11-14T05:04:18.765Z,4.20
2022-11-14T05:07:04.478Z,3.10
2022-11-14T05:09:49.780Z,4.50
2022-11-14T05:12:35.578Z,4.30
2022-11-14T05:15:21.353Z,2.60
2022-11-14T05:18:07.236Z,4.80
2022-11-14T05:20:52.773Z,5.00
2022-11-14T05:23:38.247Z,4.70
2022-11-14T05:26:24.070Z,4.60
2022-11-14T05:29:09.535Z,5.10
2022-11-14T05:31:54.913Z,4.10
2022-11-14T05:34:40.387Z,3.70
2022-11-14T05:37:25.816Z,2.70
2022-11-14T05:40:11.952Z,5.10
2022-11-14T05:42:57.768Z,2.80
2022-11-14T05:45:43.437Z,5.30
2022-11-14T05:48:29.714Z,2.80
2022-11-14T05:51:16.611Z,4.60
2022-11-14T05:54:02.071Z,5.20
2022-11-14T05:56:47.374Z,2.80
2022-11-14T05:59:33.176Z,5.10
2022-11-14T06:02:18.814Z,3.00
2022-11-14T06:05:04.787Z,2.80
2022-11-14T06:07:56.409Z,2.80
2022-11-14T06:10:41.974Z,2.90
2022-11-14T06:13:27.645Z,4.30
2022-11-14T06:16:16.164Z,4.50
2022-11-14T06:19:01.924Z,4.70
2022-11-14T06:21:47.380Z,5.20
2022-11-14T06:24:32.654Z,4.50
2022-11-14T06:27:18.351Z,4.00
2022-11-14T06:30:04.321Z,3.80
2022-11-14T06:32:50.127Z,2.80
2022-11-14T06:35:37.208Z,5.00
2022-11-14T06:38:23.014Z,4.50
2022-11-14T06:41:20.084Z,2.80
2022-11-14T06:44:08.860Z,3.80
2022-11-14T06:46:54.410Z,4.60
2022-11-14T06:49:40.861Z,3.50
2022-11-14T06:52:27.342Z,5.40
2022-11-14T06:55:13.092Z,3.60
2022-11-14T06:57:58.542Z,2.90
2022-11-14T07:00:43.868Z,5.20
2022-11-14T07:03:29.506Z,4.70
2022-11-14T07:06:28.827Z,4.90
2022-11-14T07:09:14.431Z,4.30
2022-11-14T07:11:59.742Z,2.90
2022-11-14T07:14:45.407Z,3.60
2022-11-14T07:17:31.626Z,4.70
2022-11-14T07:20:20.915Z,3.00
2022-11-14T07:23:06.781Z,3.00
2022-11-14T07:25:52.335Z,4.10
2022-11-14T07:29:08.146Z,3.10
2022-11-14T07:36:15.323Z,3.20
2022-11-14T07:39:00.909Z,3.30
2022-11-14T07:41:46.754Z,3.40
2022-11-14T07:44:32.295Z,3.40
2022-11-14T07:47:17.937Z,3.40
2022-11-14T07:50:04.272Z,5.40
2022-11-14T07:52:54.960Z,3.40
2022-11-14T07:55:40.346Z,4.30
2022-11-14T07:58:25.713Z,3.60
2022-11-14T08:01:12.961Z,3.70
2022-11-14T08:03:58.336Z,5.30
2022-11-14T08:06:43.893Z,5.00
2022-11-14T08:09:29.479Z,4.20
2022-11-14T08:12:15.105Z,4.40
2022-11-14T08:15:29.701Z,4.60
2022-11-14T08:18:15.184Z,4.70
2022-11-14T08:21:04.515Z,4.70
2022-11-14T08:23:50.118Z,4.80
2022-11-14T08:26:35.760Z,4.80
2022-11-14T08:29:21.354Z,4.90
2022-11-14T08:32:07.027Z,5.00
2022-11-14T08:34:52.497Z,5.00
2022-11-14T08:37:37.852Z,5.10
2022-11-14T08:40:23.626Z,5.20
2022-11-14T08:47:34.827Z,5.60
2022-11-14T08:50:20.577Z,6.10
2022-11-14T08:53:06.238Z,6.20
2022-11-14T08:55:51.914Z,6.30
2022-11-14T08:58:37.512Z,6.40
2022-11-14T09:01:22.670Z,6.40
2022-11-14T09:04:09.215Z,6.50
2022-11-14T09:06:55.117Z,6.50
2022-11-14T09:09:40.511Z,6.60
2022-11-14T09:12:26.157Z,6.60
2022-11-14T09:15:11.915Z,6.60
2022-11-14T09:17:58.220Z,6.60
2022-11-14T09:20:43.515Z,6.60
2022-11-14T09:23:29.734Z,6.60
2022-11-14T09:30:36.961Z,6.70
2022-11-14T09:33:22.146Z,6.80
2022-11-14T09:36:10.954Z,6.80
2022-11-14T09:38:56.166Z,6.90
2022-11-14T09:46:21.928Z,7.10
2022-11-14T09:49:35.424Z,7.50
2022-11-14T09:52:35.626Z,8.00
2022-11-14T09:55:36.454Z,8.40
2022-11-14T09:58:22.324Z,8.60
2022-11-14T10:01:46.306Z,8.80
2022-11-14T10:04:35.308Z,8.90
2022-11-14T10:08:05.918Z,9.00
2022-11-14T10:10:59.377Z,9.20
2022-11-14T10:14:06.010Z,9.20
2022-11-14T10:17:07.854Z,9.40
2022-11-14T10:20:28.673Z,9.50
2022-11-14T10:23:14.088Z,9.60
2022-11-14T10:26:08.617Z,9.60
2022-11-14T10:29:39.020Z,9.70
2022-11-14T10:32:55.019Z,9.90
2022-11-14T10:35:58.053Z,10.10
2022-11-14T10:38:52.678Z,10.40
2022-11-14T10:41:56.785Z,10.60
2022-11-14T10:44:56.251Z,10.70
2022-11-14T10:47:48.677Z,10.90
2022-11-14T10:50:51.499Z,11.00
2022-11-14T10:53:55.486Z,11.20
2022-11-14T10:56:48.396Z,11.40
2022-11-14T10:59:33.714Z,11.40
2022-11-14T11:02:19.351Z,11.50
2022-11-14T11:05:15.536Z,11.70
2022-11-14T11:08:44.878Z,11.70
2022-11-14T11:11:31.091Z,11.80
2022-11-14T11:14:18.615Z,11.70
2022-11-14T11:21:24.005Z,11.60
2022-11-14T11:24:09.790Z,11.60
2022-11-14T11:27:18.698Z,11.80
2022-11-14T11:30:25.685Z,11.90
2022-11-14T11:33:24.269Z,12.00
2022-11-14T11:36:19.556Z,11.90
2022-11-14T11:39:19.686Z,11.80
2022-11-14T11:42:10.243Z,11.80
2022-11-14T11:45:00.944Z,11.80
2022-11-14T11:48:18.905Z,11.90
2022-11-14T11:51:07.266Z,11.90
2022-11-14T11:54:25.027Z,11.90
2022-11-14T11:57:21.479Z,11.90
2022-11-14T12:00:16.255Z,12.00
2022-11-14T12:03:02.185Z,12.00
2022-11-14T12:06:27.622Z,12.00
2022-11-14T12:09:48.819Z,12.00
2022-11-14T12:13:03.643Z,11.90
2022-11-14T12:16:01.523Z,11.90
2022-11-14T12:19:05.589Z,11.90
2022-11-14T12:22:20.439Z,11.90
2022-11-14T12:25:41.283Z,11.90
2022-11-14T12:28:38.682Z,11.90
2022-11-14T12:31:26.985Z,12.00
2022-11-14T12:34:30.313Z,12.10
2022-11-14T12:37:23.787Z,12.00
2022-11-14T12:40:27.484Z,12.00
2022-11-14T12:43:43.165Z,12.00
2022-11-14T12:47:07.376Z,12.00
2022-11-14T12:49:53.113Z,12.00
2022-11-14T12:52:44.681Z,12.00
2022-11-14T12:55:29.976Z,12.00
2022-11-14T12:59:13.257Z,11.90
2022-11-14T13:02:01.620Z,11.70
2022-11-14T13:05:17.038Z,11.50
2022-11-14T13:08:14.813Z,11.40
2022-11-14T13:11:00.286Z,11.20
2022-11-14T13:14:20.787Z,11.10
2022-11-14T13:17:45.404Z,11.00
2022-11-14T13:21:23.681Z,10.90
2022-11-14T13:24:09.534Z,10.80
2022-11-14T13:26:55.889Z,10.70
2022-11-14T13:29:41.140Z,10.80
2022-11-14T13:32:41.858Z,10.80
2022-11-14T13:35:36.589Z,10.80
2022-11-14T13:38:55.689Z,10.80
2022-11-14T13:46:06.946Z,10.90
2022-11-14T13:49:05.487Z,10.90
2022-11-14T13:51:53.613Z,10.90
2022-11-14T13:54:54.500Z,11.00
2022-11-14T13:57:56.181Z,11.00
2022-11-14T14:01:13.082Z,11.00
2022-11-14T14:04:26.339Z,11.10
2022-11-14T14:07:20.841Z,11.20
2022-11-14T14:10:18.431Z,11.40
2022-11-14T14:13:32.033Z,11.50
2022-11-14T14:16:36.492Z,11.50
2022-11-14T14:19:43.857Z,11.40
2022-11-14T14:22:44.300Z,11.30
2022-11-14T14:25:32.910Z,11.30
2022-11-14T14:28:25.466Z,11.20
2022-11-14T14:31:15.734Z,11.20
2022-11-14T14:34:34.436Z,11.20
2022-11-14T14:37:25.186Z,11.20
2022-11-14T14:40:27.255Z,11.10
2022-11-14T14:43:42.499Z,11.20
2022-11-14T14:46:33.512Z,11.20
2022-11-14T14:49:23.030Z,11.20
2022-11-14T14:52:34.625Z,11.20
2022-11-14T14:55:26.129Z,11.20
2022-11-14T14:58:19.678Z,11.20
2022-11-14T15:01:34.319Z,11.20
2022-11-14T15:04:22.272Z,11.20
2022-11-14T15:07:22.437Z,11.20
2022-11-14T15:10:08.642Z,11.10
2022-11-14T15:12:55.143Z,11.00
2022-11-14T15:15:40.806Z,11.00
2022-11-14T15:18:32.843Z,10.90
2022-11-14T15:21:24.493Z,11.00
2022-11-14T15:24:15.412Z,10.90
2022-11-14T15:27:17.261Z,10.80
2022-11-14T15:30:06.138Z,10.80
2022-11-14T15:32:56.367Z,10.80
2022-11-14T15:35:42.074Z,10.70
2022-11-14T15:38:54.147Z,10.70
2022-11-14T15:41:34.246Z,10.70
2022-11-14T15:44:33.976Z,10.70
2022-11-14T15:47:28.636Z,10.70
2022-11-14T15:50:14.238Z,10.60
2022-11-14T15:53:03.967Z,10.60
2022-11-14T15:55:49.601Z,10.60
2022-11-14T15:58:34.804Z,10.60
2022-11-14T16:01:26.154Z,10.50
2022-11-14T16:04:19.973Z,10.50
2022-11-14T16:07:06.186Z,10.40
2022-11-14T16:09:53.730Z,10.40
2022-11-14T16:12:38.963Z,10.40
2022-11-14T16:15:24.848Z,10.40
2022-11-14T16:18:12.292Z,10.30
2022-11-14T16:20:59.513Z,10.30
2022-11-14T16:23:45.120Z,10.30
2022-11-14T16:26:31.420Z,10.30
2022-11-14T16:29:18.640Z,10.20
2022-11-14T16:32:04.155Z,10.20
2022-11-14T16:34:49.529Z,10.30
2022-11-14T16:37:35.271Z,10.30
2022-11-14T16:40:27.946Z,10.40
2022-11-14T16:43:14.958Z,10.40
2022-11-14T16:46:07.584Z,10.40
2022-11-14T16:48:54.316Z,10.50
2022-11-14T16:51:48.577Z,10.50
2022-11-14T16:54:35.064Z,10.50
2022-11-14T16:57:20.623Z,10.50
2022-11-14T17:00:12.494Z,10.60
2022-11-14T17:02:58.186Z,10.60
2022-11-14T17:05:45.407Z,10.70
2022-11-14T17:08:31.091Z,10.70
2022-11-14T17:11:44.710Z,10.70
2022-11-14T17:14:30.572Z,10.70
2022-11-14T17:17:16.144Z,10.70
2022-11-14T17:20:18.576Z,10.70
2022-11-14T17:23:04.413Z,10.80
2022-11-14T17:25:49.614Z,10.70
2022-11-14T17:28:35.818Z,10.70
2022-11-14T17:31:21.703Z,10.70
2022-11-14T17:38:34.911Z,10.70
2022-11-14T17:41:20.622Z,10.70
2022-11-14T17:44:06.270Z,10.70
2022-11-14T17:46:51.533Z,10.70
2022-11-14T17:49:36.966Z,10.70
2022-11-14T17:52:22.437Z,10.70
2022-11-14T17:55:08.190Z,10.70
2022-11-14T17:57:53.572Z,10.70
2022-11-14T18:00:39.054Z,10.60
2022-11-14T18:03:25.333Z,10.60
2022-11-14T18:06:16.806Z,10.60
2022-11-14T18:09:05.160Z,10.70
2022-11-14T18:11:51.004Z,10.60
2022-11-14T18:15:03.398Z,10.60
2022-11-14T18:17:48.957Z,10.60
2022-11-14T18:20:37.639Z,10.50
2022-11-14T18:23:22.944Z,10.50
2022-11-14T18:26:13.496Z,10.40
2022-11-14T18:29:02.455Z,10.40
2022-11-14T18:31:48.877Z,10.40
2022-11-14T18:34:37.015Z,10.40
2022-11-14T18:37:23.270Z,10.30
2022-11-14T18:40:16.114Z,10.30
2022-11-14T18:43:01.861Z,10.30
2022-11-14T18:45:47.224Z,10.20
2022-11-14T18:48:32.996Z,10.20
2022-11-14T18:51:31.065Z,10.10
2022-11-14T18:54:17.757Z,10.00
2022-11-14T18:57:03.530Z,9.90
2022-11-14T18:59:49.124Z,9.90
2022-11-14T19:02:35.067Z,9.90
2022-11-14T19:05:47.590Z,9.80
2022-11-14T19:08:33.196Z,9.80
2022-11-14T19:11:37.918Z,9.70
2022-11-14T19:14:23.707Z,9.70
2022-11-14T19:17:09.230Z,9.60
2022-11-14T19:19:54.839Z,9.60
2022-11-14T19:22:40.519Z,9.60
2022-11-14T19:25:26.044Z,9.60
2022-11-14T19:29:03.985Z,9.60
2022-11-14T19:31:49.477Z,9.70
2022-11-14T19:34:34.861Z,9.70
2022-11-14T19:37:20.327Z,9.70
2022-11-14T19:40:06.671Z,9.70
2022-11-14T19:43:00.356Z,9.70
2022-11-14T19:45:45.916Z,9.70
2022-11-14T19:48:32.383Z,9.80
2022-11-14T19:51:18.558Z,9.80
2022-11-14T19:54:04.377Z,9.80
2022-11-14T19:56:49.780Z,9.90
2022-11-14T19:59:40.691Z,9.90
2022-11-14T20:02:28.643Z,10.00
2022-11-14T20:05:14.408Z,10.00
2022-11-14T20:07:59.848Z,10.00
2022-11-14T20:10:55.624Z,9.90
2022-11-14T20:13:42.506Z,9.90
2022-11-14T20:16:30.641Z,9.80
2022-11-14T20:19:16.272Z,9.80
2022-11-14T20:22:01.830Z,9.70
2022-11-14T20:24:47.208Z,9.70
2022-11-14T20:27:32.509Z,9.70
2022-11-14T20:30:18.396Z,9.60
2022-11-14T20:33:04.029Z,9.60
2022-11-14T20:35:49.779Z,9.60
2022-11-14T20:38:38.945Z,9.50
2022-11-14T20:41:31.592Z,9.50
2022-11-14T20:44:19.001Z,9.50
2022-11-14T20:47:09.728Z,9.60
2022-11-14T20:49:56.593Z,9.50
2022-11-14T20:52:56.459Z,9.50
2022-11-14T20:55:42.764Z,9.50
2022-11-14T20:58:28.695Z,9.50
2022-11-14T21:01:15.920Z,9.50
2022-11-14T21:04:01.824Z,9.60
2022-11-14T21:06:47.228Z,9.60
2022-11-14T21:09:32.663Z,9.60
2022-11-14T21:12:18.218Z,9.80
2022-11-14T21:15:35.475Z,9.80
2022-11-14T21:18:20.855Z,9.90
2022-11-14T21:21:19.271Z,10.00
2022-11-14T21:24:05.585Z,10.10
2022-11-14T21:26:51.095Z,10.20
2022-11-14T21:29:37.059Z,10.20
2022-11-14T21:32:23.027Z,10.30
2022-11-14T21:35:10.088Z,10.30
2022-11-14T21:37:55.736Z,10.40
2022-11-14T21:40:41.231Z,10.40
2022-11-14T21:43:26.582Z,10.40
2022-11-14T21:46:17.904Z,10.50
2022-11-14T21:49:03.537Z,10.50
2022-11-14T21:51:48.931Z,10.50
2022-11-14T21:54:34.578Z,10.50
2022-11-14T21:57:19.909Z,10.40
2022-11-14T22:00:06.301Z,10.50
2022-11-14T22:03:10.843Z,10.50
2022-11-14T22:05:57.666Z,10.50
2022-11-14T22:08:45.831Z,10.50
2022-11-14T22:11:31.435Z,10.50
2022-11-14T22:14:17.124Z,10.50
2022-11-14T22:17:02.470Z,10.60
2022-11-14T22:19:48.024Z,10.60
2022-11-14T22:22:33.598Z,10.70
2022-11-14T22:25:18.992Z,10.70
2022-11-14T22:28:04.921Z,10.70
2022-11-14T22:31:05.750Z,10.80
2022-11-14T22:33:53.413Z,10.80
2022-11-14T22:36:39.147Z,10.80
2022-11-14T22:39:24.494Z,10.90
2022-11-14T22:42:10.865Z,10.90
2022-11-14T22:44:56.552Z,10.90
2022-11-14T22:47:41.867Z,10.90
2022-11-14T22:50:27.547Z,10.90
2022-11-14T22:53:13.195Z,10.80
2022-11-14T22:55:59.185Z,10.90
2022-11-14T22:58:45.882Z,10.90
2022-11-14T23:01:33.087Z,10.80
2022-11-14T23:04:18.836Z,10.80
2022-11-14T23:07:04.345Z,10.80
2022-11-14T23:09:50.177Z,10.80
2022-11-14T23:12:35.738Z,10.70
2022-11-14T23:15:21.654Z,10.70
2022-11-14T23:18:07.231Z,10.60
2022-11-14T23:20:52.608Z,10.60
2022-11-14T23:23:38.288Z,10.50
2022-11-14T23:26:24.396Z,10.50
2022-11-14T23:29:14.425Z,10.50
2022-11-14T23:31:59.988Z,10.50
2022-11-14T23:34:45.482Z,10.50
2022-11-14T23:37:30.926Z,10.50
2022-11-14T23:40:16.530Z,10.50
2022-11-14T23:43:02.092Z,10.50
2022-11-14T23:45:48.456Z,10.40
2022-11-14T23:48:33.960Z,10.40
2022-11-14T23:51:19.480Z,10.40
2022-11-14T23:54:05.209Z,10.40
2022-11-14T23:56:50.611Z,10.40
2022-11-14T23:59:36.090Z,10.40
